Flight Track Log - Related Links

Times and Time Zones

All times are in EDT time to prevent confusion due to time zone crossing. See the EJA809 flight status page for this flight to view local times or setup timezone preferences in your user account.


Time Position Orientation Groundspeed Altitude Reporting Facility
EDT Latitude Longitude Course Direction KTS MPH feet Rate Location/Type
Sun 04:01:45 PM 40.0333 -105.1333 131° Southeast 217 250 8,300  Level Denver TRACON
Sun 04:02:45 PM 40.0000 -105.0833 131° Southeast 238 274 10,500 2,118 Climbing Denver TRACON
Sun 04:03:10 PM 39.9700 -105.0575 147° Southeast 242 278 11,300 1,931 Climbing Denver Center
Sun 04:04:12 PM 39.8939 -104.9983 149° Southeast 298 343 13,300 1,887 Climbing Denver Center
Sun 04:05:14 PM 39.8142 -104.9378 150° Southeast 331 381 15,200 1,935 Climbing Denver Center
Sun 04:06:16 PM 39.7161 -104.8981 163° South 349 402 17,300 1,694 Climbing Denver Center
Sun 04:07:18 PM 39.6242 -104.8719 168° South 342 394 18,700 1,403 Climbing Denver Center
Sun 04:08:20 PM 39.5183 -104.8447 169° South 364 419 20,200 1,403 Climbing Denver Center
Sun 04:09:22 PM 39.4203 -104.8289 173° South 363 418 21,600 1,355 Climbing Denver Center
Sun 04:10:24 PM 39.3272 -104.8800 203° Southwest 364 419 23,000 1,355 Climbing Denver Center
Sun 04:11:26 PM 39.2347 -104.9456 209° Southwest 358 412 24,400 968 Climbing Denver Center
Sun 04:12:28 PM 39.1433 -105.0092 208° Southwest 370 426 25,000 290 Climbing Denver Center
Sun 04:13:30 PM 39.0478 -105.0767 209° Southwest 384 442 25,000  Level Denver Center
Sun 04:14:31 PM 38.9511 -105.1442 209° Southwest 391 450 25,000  Level Denver Center
Sun 04:15:33 PM 38.8461 -105.2178 209° Southwest 384 442 25,000  Level Denver Center
Sun 04:16:35 PM 38.7575 -105.2789 208° Southwest 380 437 25,000  Level Denver Center
Sun 04:17:37 PM 38.6544 -105.3506 209° Southwest 378 435 25,000  Level Denver Center
Sun 04:18:39 PM 38.5628 -105.4011 203° Southwest 377 434 25,000  Level Denver Center
Sun 04:19:41 PM 38.4469 -105.4406 195° South 385 443 25,000  Level Denver Center
Sun 04:20:43 PM 38.3478 -105.4744 195° South 385 443 25,000  Level Denver Center
Sun 04:21:45 PM 38.2333 -105.5147 195° South 382 440 25,000  Level Denver Center
Sun 04:22:47 PM 38.1364 -105.5483 195° South 378 435 25,000  Level Denver Center
Sun 04:23:49 PM 38.0203 -105.5878 195° South 385 443 25,000  Level Denver Center
Sun 04:24:51 PM 37.9244 -105.6197 195° South 377 434 25,000  Level Denver Center
Sun 04:25:53 PM 37.8125 -105.6581 195° South 374 430 25,000  Level Denver Center
Sun 04:26:55 PM 37.7139 -105.6911 195° South 379 436 25,000  Level Denver Center
Sun 04:27:57 PM 37.6158 -105.7253 195° South 381 438 25,000  Level Denver Center
Sun 04:28:59 PM 37.4969 -105.7661 195° South 390 449 25,000  Level Denver Center
Sun 04:30:01 PM 37.3942 -105.7989 194° South 393 452 25,000  Level Denver Center
Sun 04:31:03 PM 37.2756 -105.8272 191° South 393 452 25,000  Level Denver Center
Sun 04:32:05 PM 37.1675 -105.8444 187° South 397 457 25,000  Level Denver Center
Sun 04:33:07 PM 37.0444 -105.8633 187° South 397 457 25,000  Level Denver Center
Sun 04:34:09 PM 36.9433 -105.8800 188° South 393 452 25,000  Level Denver Center
Sun 04:35:11 PM 36.8228 -105.8983 187° South 391 450 25,000  Level Denver Center
Sun 04:36:13 PM 36.7156 -105.9158 187° South 391 450 25,000 -242 Level Denver Center
Sun 04:37:15 PM 36.6086 -105.9328 187° South 387 445 24,500 -675 Descending Denver Center
Sun 04:37:33 PM 36.5803 -105.9389 190° South 394 453 24,100 -1,650 Descending Albuquerque Center
Sun 04:38:35 PM 36.4761 -105.9572 188° South 348 400 22,300 -1,742 Descending Albuquerque Center
Sun 04:39:37 PM 36.3831 -105.9706 187° South 336 387 20,500 -1,790 Descending Albuquerque Center
Sun 04:40:39 PM 36.2911 -105.9844 187° South 332 382 18,600 -1,790 Descending Albuquerque Center
Sun 04:41:41 PM 36.1969 -106.0008 188° South 337 388 16,800 -1,790 Descending Albuquerque Center
Sun 04:42:43 PM 36.1025 -106.0128 186° South 341 392 14,900 -1,902 Descending Albuquerque Center
Sun 04:43:44 PM 36.0144 -106.0267 187° South 330 380 12,900 -1,415 Descending Albuquerque Center
Sun 04:44:46 PM 35.9306 -106.0406 188° South 318 366 12,000 -1,016 Descending Albuquerque Center
Sun 04:45:48 PM 35.8325 -106.0608 190° South 306 352 10,800 -1,290 Descending Albuquerque Center
Sun 04:47:00 PM 35.7110 -106.0662 182° South  Level FlightAware Approximate
Sun 04:47:52 PM 35.7142 -106.1178 182° South 231 266 8,000  Level Albuquerque Center
Sun 04:48:54 PM 35.6669 -106.1022 165° South 193 222 7,200 -774 Descending Albuquerque Center

Login

Don't have an account? Register now (free) for customized features, flight alerts, and more!